createdAt,value
2023-04-09T00:02:30.382Z,31.98
2023-04-09T00:05:05.236Z,31.94
2023-04-09T00:07:44.470Z,31.91
2023-04-09T00:10:29.664Z,32.46
2023-04-09T00:13:10.282Z,32.03
2023-04-09T00:15:47.866Z,32.29
2023-04-09T00:18:20.322Z,32.26
2023-04-09T00:20:56.091Z,32.17
2023-04-09T00:23:34.325Z,32.10
2023-04-09T00:26:10.888Z,31.97
2023-04-09T00:28:46.790Z,32.25
2023-04-09T00:31:24.390Z,31.97
2023-04-09T00:34:00.513Z,32.04
2023-04-09T00:36:32.892Z,32.27
2023-04-09T00:39:10.521Z,32.37
2023-04-09T00:41:43.380Z,32.21
2023-04-09T00:44:25.449Z,32.37
2023-04-09T00:47:01.716Z,32.33
2023-04-09T00:49:40.043Z,32.13
2023-04-09T00:52:24.805Z,32.43
2023-04-09T00:54:57.662Z,32.40
2023-04-09T00:57:34.404Z,32.05
2023-04-09T01:00:17.000Z,32.28
2023-04-09T01:02:52.984Z,32.10
2023-04-09T01:05:57.457Z,32.26
2023-04-09T01:08:56.043Z,32.26
2023-04-09T01:11:41.680Z,32.16
2023-04-09T01:14:25.426Z,32.27
2023-04-09T01:17:21.586Z,32.10
2023-04-09T01:20:04.071Z,31.99
2023-04-09T01:22:49.023Z,31.75
2023-04-09T01:25:44.335Z,31.92
2023-04-09T01:28:41.776Z,32.06
2023-04-09T01:31:20.288Z,31.87
2023-04-09T01:33:55.660Z,31.98
2023-04-09T01:36:33.345Z,32.08
2023-04-09T01:39:11.997Z,31.95
2023-04-09T01:41:48.477Z,31.90
2023-04-09T01:44:24.698Z,31.86
2023-04-09T01:47:04.529Z,31.69
2023-04-09T01:49:48.542Z,32.04
2023-04-09T01:52:28.138Z,32.00
2023-04-09T01:55:03.999Z,32.07
2023-04-09T01:57:42.018Z,32.05
2023-04-09T02:00:20.710Z,31.93
2023-04-09T02:03:15.829Z,32.11
2023-04-09T02:05:55.896Z,31.78
2023-04-09T02:08:33.788Z,31.83
2023-04-09T02:11:15.334Z,31.96
2023-04-09T02:13:53.997Z,31.70
2023-04-09T02:16:40.460Z,31.97
2023-04-09T02:19:18.408Z,31.99
2023-04-09T02:21:59.749Z,31.92
2023-04-09T02:24:43.383Z,32.21
2023-04-09T02:27:16.490Z,31.73
2023-04-09T02:30:04.089Z,32.20
2023-04-09T02:32:43.781Z,32.00
2023-04-09T02:35:21.794Z,32.22
2023-04-09T02:38:00.370Z,32.20
2023-04-09T02:40:49.613Z,32.31
2023-04-09T02:43:31.515Z,32.34
2023-04-09T02:46:13.095Z,32.49
2023-04-09T02:48:54.349Z,32.36
2023-04-09T02:51:30.097Z,32.63
2023-04-09T02:54:06.025Z,32.72
2023-04-09T02:56:44.832Z,32.76
2023-04-09T02:59:22.723Z,32.42
2023-04-09T03:01:58.459Z,32.63
2023-04-09T03:04:37.221Z,32.67
2023-04-09T03:07:05.732Z,32.77
2023-04-09T03:09:45.473Z,32.83
2023-04-09T03:12:25.359Z,32.64
2023-04-09T03:15:06.637Z,32.76
2023-04-09T03:17:51.294Z,32.73
2023-04-09T03:20:30.003Z,32.85
2023-04-09T03:23:22.520Z,32.51
2023-04-09T03:26:02.963Z,32.92
2023-04-09T03:28:45.800Z,32.87
2023-04-09T03:31:23.791Z,32.84
2023-04-09T03:34:02.664Z,33.19
2023-04-09T03:36:41.594Z,32.96
2023-04-09T03:39:30.739Z,32.98
2023-04-09T03:42:04.585Z,32.90
2023-04-09T03:44:56.240Z,32.97
2023-04-09T03:47:47.763Z,33.26
2023-04-09T03:50:26.319Z,33.06
2023-04-09T03:53:07.473Z,32.94
2023-04-09T03:55:57.615Z,32.88
2023-04-09T03:58:46.810Z,32.86
2023-04-09T04:01:26.558Z,32.97
2023-04-09T04:04:09.628Z,33.01
2023-04-09T04:06:50.316Z,33.02
2023-04-09T04:09:43.936Z,33.14
2023-04-09T04:12:22.932Z,33.04
2023-04-09T04:15:13.569Z,33.06
2023-04-09T04:17:55.728Z,33.17
2023-04-09T04:20:52.713Z,33.11
2023-04-09T04:23:39.574Z,32.90
2023-04-09T04:26:37.172Z,32.75
2023-04-09T04:29:18.268Z,32.90
2023-04-09T04:32:23.622Z,33.27
2023-04-09T04:35:05.293Z,32.88
2023-04-09T04:37:48.792Z,33.19
2023-04-09T04:40:25.443Z,32.97
2023-04-09T04:43:10.288Z,33.00
2023-04-09T04:45:55.058Z,33.31
2023-04-09T04:48:34.654Z,33.12
2023-04-09T04:51:24.525Z,32.94
2023-04-09T04:54:17.520Z,33.31
2023-04-09T04:57:05.786Z,33.12
2023-04-09T04:59:48.224Z,32.96
2023-04-09T05:02:31.257Z,33.11
2023-04-09T05:05:33.291Z,33.16
2023-04-09T05:08:17.954Z,33.22
2023-04-09T05:11:03.995Z,33.27
2023-04-09T05:13:47.091Z,33.16
2023-04-09T05:16:31.035Z,33.14
2023-04-09T05:19:12.609Z,33.18
2023-04-09T05:21:53.231Z,33.27
2023-04-09T05:24:34.894Z,33.32
2023-04-09T05:27:10.616Z,33.53
2023-04-09T05:29:49.418Z,33.26
2023-04-09T05:32:29.447Z,32.96
2023-04-09T05:35:05.694Z,33.28
2023-04-09T05:37:42.768Z,33.08
2023-04-09T05:40:18.537Z,33.29
2023-04-09T05:42:54.171Z,33.31
2023-04-09T05:45:40.214Z,32.92
2023-04-09T05:48:18.503Z,33.29
2023-04-09T05:51:01.006Z,32.76
2023-04-09T05:53:42.186Z,32.85
2023-04-09T05:56:18.821Z,32.86
2023-04-09T05:59:03.808Z,32.94
2023-04-09T06:01:39.090Z,32.91
2023-04-09T06:04:15.175Z,33.02
2023-04-09T06:06:53.717Z,32.74
2023-04-09T06:09:27.745Z,32.84
2023-04-09T06:12:04.768Z,32.75
2023-04-09T06:14:40.882Z,32.92
2023-04-09T06:17:17.720Z,32.75
2023-04-09T06:19:51.087Z,32.69
2023-04-09T06:22:26.736Z,32.63
2023-04-09T06:25:07.121Z,32.49
2023-04-09T06:27:45.718Z,32.60
2023-04-09T06:30:23.611Z,32.58
2023-04-09T06:32:57.568Z,32.52
2023-04-09T06:35:33.513Z,32.68
2023-04-09T06:38:12.253Z,32.65
2023-04-09T06:40:53.741Z,32.37
2023-04-09T06:43:28.812Z,32.44
2023-04-09T06:46:04.782Z,32.45
2023-04-09T06:48:35.005Z,32.47
2023-04-09T06:51:15.047Z,32.22
2023-04-09T06:53:51.533Z,32.44
2023-04-09T06:56:28.763Z,32.38
2023-04-09T06:59:01.646Z,32.00
2023-04-09T07:01:42.722Z,32.14
2023-04-09T07:04:15.834Z,32.43
2023-04-09T07:06:59.790Z,31.94
2023-04-09T07:09:36.922Z,32.25
2023-04-09T07:12:24.382Z,32.15
2023-04-09T07:15:03.403Z,32.05
2023-04-09T07:17:44.758Z,32.06
2023-04-09T07:20:14.934Z,32.00
2023-04-09T07:22:51.272Z,31.94
2023-04-09T07:25:24.193Z,31.96
2023-04-09T07:27:59.644Z,31.84
2023-04-09T07:30:40.305Z,32.09
2023-04-09T07:33:16.049Z,31.63
2023-04-09T07:35:53.557Z,31.77
2023-04-09T07:38:35.084Z,31.48
2023-04-09T07:41:14.150Z,31.32
2023-04-09T07:43:52.298Z,31.25
2023-04-09T07:46:25.889Z,31.46
2023-04-09T07:49:01.767Z,31.42
2023-04-09T07:51:40.108Z,30.78
2023-04-09T07:54:21.306Z,31.06
2023-04-09T07:57:01.229Z,31.14
2023-04-09T07:59:38.525Z,31.11
2023-04-09T08:02:11.578Z,31.00
2023-04-09T08:04:50.978Z,31.03
2023-04-09T08:07:29.369Z,30.81
2023-04-09T08:10:05.066Z,30.95
2023-04-09T08:12:46.621Z,30.75
2023-04-09T08:15:24.764Z,30.50
2023-04-09T08:18:02.976Z,30.59
2023-04-09T08:20:45.522Z,30.55
2023-04-09T08:23:29.842Z,30.36
2023-04-09T08:26:07.640Z,30.53
2023-04-09T08:28:48.745Z,30.38
2023-04-09T08:31:30.217Z,30.25
2023-04-09T08:34:08.547Z,30.16
2023-04-09T08:36:46.470Z,30.42
2023-04-09T08:39:25.410Z,30.20
2023-04-09T08:42:06.745Z,30.63
2023-04-09T08:44:48.458Z,30.37
2023-04-09T08:47:24.047Z,30.33
2023-04-09T08:49:59.903Z,30.07
2023-04-09T08:52:38.898Z,30.17
2023-04-09T08:55:14.753Z,30.07
2023-04-09T08:57:53.500Z,30.02
2023-04-09T09:00:29.178Z,29.88
2023-04-09T09:03:16.060Z,29.89
2023-04-09T09:05:51.502Z,30.31
2023-04-09T09:08:26.188Z,30.41
2023-04-09T09:11:02.116Z,30.66
2023-04-09T09:13:40.806Z,30.23
2023-04-09T09:16:17.981Z,30.47
2023-04-09T09:18:54.606Z,30.61
2023-04-09T09:21:30.496Z,30.33
2023-04-09T09:24:17.123Z,30.79
2023-04-09T09:26:52.766Z,30.27
2023-04-09T09:29:28.689Z,30.40
2023-04-09T09:32:13.029Z,30.07
2023-04-09T09:34:58.369Z,30.15
2023-04-09T09:37:34.326Z,30.33
2023-04-09T09:40:08.193Z,30.35
2023-04-09T09:42:55.290Z,30.43
2023-04-09T09:45:32.142Z,30.19
2023-04-09T09:48:06.143Z,30.17
2023-04-09T09:50:42.485Z,30.08
2023-04-09T09:53:23.084Z,30.09
2023-04-09T09:56:04.300Z,30.18
2023-04-09T09:58:45.685Z,30.37
2023-04-09T10:01:24.576Z,30.33
2023-04-09T10:04:02.728Z,30.19
2023-04-09T10:06:38.990Z,30.06
2023-04-09T10:09:18.138Z,29.73
2023-04-09T10:11:57.781Z,30.09
2023-04-09T10:14:35.820Z,29.89
2023-04-09T10:17:11.833Z,29.87
2023-04-09T10:19:48.380Z,29.95
2023-04-09T10:22:32.077Z,29.78
2023-04-09T10:25:11.131Z,29.70
2023-04-09T10:27:48.872Z,29.71
2023-04-09T10:30:32.482Z,29.76
2023-04-09T10:33:26.924Z,29.57
2023-04-09T10:36:24.410Z,29.54
2023-04-09T10:39:01.051Z,29.54
2023-04-09T10:41:34.113Z,29.73
2023-04-09T10:44:32.201Z,29.55
2023-04-09T10:47:06.246Z,29.53
2023-04-09T10:49:43.182Z,29.42
2023-04-09T10:52:35.395Z,29.58
2023-04-09T10:55:11.177Z,29.51
2023-04-09T10:57:44.100Z,29.42
2023-04-09T11:00:18.905Z,29.44
2023-04-09T11:03:06.530Z,29.53
2023-04-09T11:05:41.068Z,29.62
2023-04-09T11:08:12.912Z,29.49
2023-04-09T11:10:51.905Z,29.27
2023-04-09T11:13:21.288Z,29.36
2023-04-09T11:16:01.344Z,29.33
2023-04-09T11:18:37.380Z,29.34
2023-04-09T11:21:09.719Z,29.24
2023-04-09T11:23:52.023Z,29.26
2023-04-09T11:26:38.940Z,29.21
2023-04-09T11:29:14.616Z,29.15
2023-04-09T11:31:53.496Z,29.23
2023-04-09T11:34:34.273Z,29.27
2023-04-09T11:37:14.588Z,29.23
2023-04-09T11:39:56.178Z,29.24
2023-04-09T11:42:34.526Z,29.07
2023-04-09T11:45:12.056Z,29.16
2023-04-09T11:47:49.041Z,29.10
2023-04-09T11:50:25.715Z,29.30
2023-04-09T11:53:00.962Z,29.27
2023-04-09T11:55:33.948Z,29.25
2023-04-09T11:58:13.464Z,29.36
2023-04-09T12:00:53.082Z,29.40
2023-04-09T12:03:41.288Z,29.46
2023-04-09T12:06:23.657Z,29.55
2023-04-09T12:08:58.042Z,29.68
2023-04-09T12:11:31.738Z,29.78
2023-04-09T12:14:10.934Z,29.53
2023-04-09T12:16:44.755Z,29.52
2023-04-09T12:19:19.320Z,29.53
2023-04-09T12:21:54.739Z,29.32
2023-04-09T12:24:31.297Z,29.54
2023-04-09T12:27:07.526Z,29.78
2023-04-09T12:29:43.602Z,29.70
2023-04-09T12:32:16.832Z,29.64
2023-04-09T12:34:47.502Z,29.62
2023-04-09T12:37:26.741Z,29.75
2023-04-09T12:40:05.067Z,29.59
2023-04-09T12:42:44.417Z,29.67
2023-04-09T12:45:21.255Z,29.69
2023-04-09T12:47:54.085Z,29.57
2023-04-09T12:50:38.602Z,29.73
2023-04-09T12:53:11.891Z,29.80
2023-04-09T12:55:47.538Z,29.92
2023-04-09T12:58:20.488Z,29.91
2023-04-09T13:00:54.516Z,29.93
2023-04-09T13:03:30.627Z,29.96
2023-04-09T13:06:09.829Z,29.91
2023-04-09T13:08:42.036Z,30.02
2023-04-09T13:11:17.648Z,30.25
2023-04-09T13:13:55.679Z,30.42
2023-04-09T13:16:23.943Z,30.16
2023-04-09T13:18:54.359Z,30.30
2023-04-09T13:21:31.053Z,30.21
2023-04-09T13:24:08.769Z,30.21
2023-04-09T13:26:44.628Z,30.14
2023-04-09T13:29:24.275Z,29.95
2023-04-09T13:32:06.813Z,30.17
2023-04-09T13:34:46.097Z,29.96
2023-04-09T13:37:21.307Z,30.18
2023-04-09T13:39:58.244Z,30.38
2023-04-09T13:42:29.254Z,30.17
2023-04-09T13:45:02.408Z,30.21
2023-04-09T13:47:40.298Z,30.28
2023-04-09T13:50:13.876Z,30.33
2023-04-09T13:52:51.910Z,30.37
2023-04-09T13:55:27.488Z,30.72
2023-04-09T13:58:03.043Z,30.35
2023-04-09T14:00:39.342Z,30.55
2023-04-09T14:03:16.371Z,30.48
2023-04-09T14:05:52.419Z,30.89
2023-04-09T14:08:27.477Z,30.61
2023-04-09T14:11:03.193Z,30.67
2023-04-09T14:13:38.408Z,30.68
2023-04-09T14:16:10.711Z,30.48
2023-04-09T14:18:43.401Z,30.63
2023-04-09T14:21:18.162Z,31.02
2023-04-09T14:23:51.010Z,30.70
2023-04-09T14:26:29.196Z,30.72
2023-04-09T14:29:02.366Z,30.87
2023-04-09T14:31:42.676Z,30.63
2023-04-09T14:34:12.870Z,30.65
2023-04-09T14:36:51.378Z,30.59
2023-04-09T14:39:31.496Z,30.60
2023-04-09T14:42:04.528Z,30.65
2023-04-09T14:44:37.429Z,30.55
2023-04-09T14:47:13.144Z,30.54
2023-04-09T14:49:48.368Z,30.72
2023-04-09T14:52:23.771Z,30.65
2023-04-09T14:54:53.801Z,30.55
2023-04-09T14:57:27.033Z,30.63
2023-04-09T15:00:00.734Z,30.56
2023-04-09T15:02:39.238Z,30.62
2023-04-09T15:05:20.208Z,30.63
2023-04-09T15:07:56.190Z,30.58
2023-04-09T15:10:31.802Z,30.65
2023-04-09T15:13:04.715Z,30.65
2023-04-09T15:15:41.426Z,30.63
2023-04-09T15:18:17.132Z,30.71
2023-04-09T15:20:55.521Z,30.80
2023-04-09T15:23:35.534Z,30.91
2023-04-09T15:26:10.462Z,30.86
2023-04-09T15:28:49.468Z,31.06
2023-04-09T15:31:24.856Z,30.97
2023-04-09T15:34:03.048Z,30.91
2023-04-09T15:36:36.015Z,30.62
2023-04-09T15:39:11.884Z,30.76
2023-04-09T15:41:45.674Z,30.78
2023-04-09T15:44:19.239Z,30.91
2023-04-09T15:46:57.950Z,30.88
2023-04-09T15:49:41.800Z,30.70
2023-04-09T15:52:17.119Z,30.86
2023-04-09T15:54:52.988Z,30.84
2023-04-09T15:57:29.100Z,30.84
2023-04-09T16:00:07.802Z,30.72
2023-04-09T16:02:39.264Z,30.96
2023-04-09T16:05:18.337Z,30.65
2023-04-09T16:07:59.932Z,30.60
2023-04-09T16:10:33.007Z,30.73
2023-04-09T16:13:06.485Z,30.76
2023-04-09T16:15:45.411Z,30.92
2023-04-09T16:18:21.634Z,30.76
2023-04-09T16:21:02.590Z,30.61
2023-04-09T16:23:44.653Z,30.72
2023-04-09T16:26:18.053Z,30.56
2023-04-09T16:28:53.021Z,30.64
2023-04-09T16:31:28.497Z,30.37
2023-04-09T16:34:07.235Z,30.43
2023-04-09T16:36:41.569Z,30.60
2023-04-09T16:39:31.946Z,30.53
2023-04-09T16:42:07.810Z,30.63
2023-04-09T16:44:40.676Z,30.54
2023-04-09T16:47:15.869Z,30.49
2023-04-09T16:49:54.465Z,30.51
2023-04-09T16:52:35.389Z,30.35
2023-04-09T16:55:08.373Z,30.61
2023-04-09T16:57:44.079Z,30.38
2023-04-09T17:00:21.156Z,30.50
2023-04-09T17:03:02.652Z,30.57
2023-04-09T17:05:35.890Z,30.54
2023-04-09T17:08:12.346Z,30.28
2023-04-09T17:10:47.875Z,30.49
2023-04-09T17:13:18.159Z,30.62
2023-04-09T17:15:54.221Z,30.54
2023-04-09T17:18:29.986Z,30.51
2023-04-09T17:21:10.887Z,30.63
2023-04-09T17:23:51.833Z,30.63
2023-04-09T17:26:21.119Z,30.69
2023-04-09T17:28:54.828Z,30.76
2023-04-09T17:31:34.052Z,30.84
2023-04-09T17:34:08.613Z,31.00
2023-04-09T17:36:47.075Z,30.69
2023-04-09T17:39:26.987Z,30.70
2023-04-09T17:42:00.898Z,30.78
2023-04-09T17:44:35.450Z,30.53
2023-04-09T17:47:08.620Z,30.72
2023-04-09T17:49:47.297Z,30.81
2023-04-09T17:52:29.589Z,30.75
2023-04-09T17:55:06.081Z,31.02
2023-04-09T17:57:44.150Z,30.65
2023-04-09T18:00:19.950Z,30.78
2023-04-09T18:02:56.453Z,30.68
2023-04-09T18:05:33.906Z,30.61
2023-04-09T18:08:10.679Z,30.67
2023-04-09T18:11:11.429Z,30.65
2023-04-09T18:13:49.886Z,30.90
2023-04-09T18:16:28.732Z,30.83
2023-04-09T18:19:05.282Z,30.99
2023-04-09T18:21:38.187Z,30.95
2023-04-09T18:24:11.165Z,30.98
2023-04-09T18:26:49.035Z,30.64
2023-04-09T18:29:29.114Z,30.81
2023-04-09T18:32:10.277Z,30.81
2023-04-09T18:34:45.047Z,30.96
2023-04-09T18:37:22.178Z,30.80
2023-04-09T18:40:02.458Z,30.81
2023-04-09T18:42:40.513Z,30.83
2023-04-09T18:45:21.073Z,31.22
2023-04-09T18:47:57.759Z,30.92
2023-04-09T18:50:44.606Z,30.95
2023-04-09T18:53:20.361Z,30.75
2023-04-09T18:55:55.887Z,30.87
2023-04-09T18:58:33.915Z,31.01
2023-04-09T19:01:14.272Z,30.68
2023-04-09T19:03:49.982Z,30.70
2023-04-09T19:06:27.351Z,30.86
2023-04-09T19:09:02.258Z,30.77
2023-04-09T19:11:41.628Z,30.92
2023-04-09T19:14:17.241Z,30.87
2023-04-09T19:16:50.331Z,30.68
2023-04-09T19:19:23.545Z,30.77
2023-04-09T19:21:54.899Z,30.81
2023-04-09T19:24:28.001Z,30.81
2023-04-09T19:27:09.868Z,30.66
2023-04-09T19:29:46.205Z,30.55
2023-04-09T19:32:19.146Z,30.86
2023-04-09T19:34:54.908Z,30.68
2023-04-09T19:37:35.957Z,30.87
2023-04-09T19:40:09.685Z,30.78
2023-04-09T19:42:47.946Z,30.86
2023-04-09T19:45:17.561Z,30.89
2023-04-09T19:47:55.554Z,30.73
2023-04-09T19:50:28.627Z,31.12
2023-04-09T19:53:06.206Z,31.00
2023-04-09T19:55:41.672Z,31.07
2023-04-09T19:58:16.963Z,31.05
2023-04-09T20:00:44.314Z,31.03
2023-04-09T20:03:20.514Z,31.06
2023-04-09T20:05:58.318Z,31.04
2023-04-09T20:08:34.207Z,31.26
2023-04-09T20:11:21.430Z,30.86
2023-04-09T20:13:52.130Z,31.02
2023-04-09T20:16:28.368Z,31.00
2023-04-09T20:19:03.824Z,31.29
2023-04-09T20:21:41.962Z,31.03
2023-04-09T20:24:22.395Z,30.97
2023-04-09T20:26:59.620Z,31.02
2023-04-09T20:29:41.432Z,31.04
2023-04-09T20:32:14.369Z,31.32
2023-04-09T20:34:48.271Z,31.34
2023-04-09T20:37:26.654Z,31.24
2023-04-09T20:40:02.394Z,31.12
2023-04-09T20:42:44.482Z,31.22
2023-04-09T20:45:17.224Z,30.97
2023-04-09T20:47:45.977Z,31.35
2023-04-09T20:50:22.296Z,31.32
2023-04-09T20:53:03.962Z,31.46
2023-04-09T20:55:42.886Z,31.09
2023-04-09T20:58:16.700Z,31.29
2023-04-09T21:00:52.615Z,31.09
2023-04-09T21:03:40.452Z,31.03
2023-04-09T21:06:14.379Z,31.42
2023-04-09T21:08:50.525Z,31.24
2023-04-09T21:11:28.715Z,31.12
2023-04-09T21:14:02.020Z,31.12
2023-04-09T21:16:34.778Z,31.25
2023-04-09T21:19:08.241Z,31.08
2023-04-09T21:21:47.881Z,31.10
2023-04-09T21:24:21.450Z,31.20
2023-04-09T21:26:58.792Z,31.52
2023-04-09T21:29:39.969Z,31.45
2023-04-09T21:32:15.713Z,31.27
2023-04-09T21:34:48.217Z,31.22
2023-04-09T21:37:28.890Z,31.28
2023-04-09T21:40:07.515Z,31.26
2023-04-09T21:42:42.620Z,31.33
2023-04-09T21:45:20.595Z,31.22
2023-04-09T21:47:53.272Z,31.28
2023-04-09T21:50:28.552Z,31.08
2023-04-09T21:53:06.674Z,31.10
2023-04-09T21:55:42.426Z,31.18
2023-04-09T21:58:17.899Z,30.94
2023-04-09T22:00:53.599Z,30.94
2023-04-09T22:03:29.840Z,30.94
2023-04-09T22:06:09.651Z,31.10
2023-04-09T22:08:55.474Z,30.93
2023-04-09T22:11:29.907Z,31.32
2023-04-09T22:14:07.829Z,31.31
2023-04-09T22:16:46.625Z,31.05
2023-04-09T22:19:22.319Z,31.11
2023-04-09T22:21:56.006Z,30.95
2023-04-09T22:24:31.213Z,31.06
2023-04-09T22:27:07.129Z,31.16
2023-04-09T22:29:40.061Z,30.96
2023-04-09T22:32:16.206Z,31.26
2023-04-09T22:34:57.650Z,31.05
2023-04-09T22:37:36.458Z,31.24
2023-04-09T22:40:14.323Z,30.91
2023-04-09T22:42:53.070Z,30.94
2023-04-09T22:45:30.607Z,31.39
2023-04-09T22:47:59.327Z,31.29
2023-04-09T22:50:34.803Z,31.34
2023-04-09T22:53:18.699Z,31.27
2023-04-09T22:55:54.944Z,31.24
2023-04-09T22:58:26.236Z,31.22
2023-04-09T23:01:05.808Z,31.18
2023-04-09T23:03:44.637Z,31.19
2023-04-09T23:06:21.856Z,31.22
2023-04-09T23:09:01.767Z,31.47
2023-04-09T23:11:38.433Z,31.49
2023-04-09T23:14:16.440Z,31.51
2023-04-09T23:16:46.361Z,31.16
2023-04-09T23:19:22.049Z,31.26
2023-04-09T23:22:03.542Z,31.41
2023-04-09T23:24:39.215Z,31.44
2023-04-09T23:27:15.415Z,31.51
2023-04-09T23:29:48.379Z,31.34
2023-04-09T23:32:27.033Z,31.41
2023-04-09T23:35:01.215Z,31.26
2023-04-09T23:37:40.718Z,31.43
2023-04-09T23:40:18.051Z,31.73
2023-04-09T23:42:56.304Z,31.22
2023-04-09T23:45:32.039Z,31.29
2023-04-09T23:48:11.637Z,31.37
2023-04-09T23:50:52.669Z,31.39
2023-04-09T23:53:28.133Z,31.24
2023-04-09T23:56:00.901Z,31.51
2023-04-09T23:58:40.416Z,31.57
